| Date | Time | Temp. (oF) | Dew Point (oF) | Rel. Hum. (%) | Press. (in.) | Wind Dir. | Wind Speed (mph) | Hourly Rainfall (in.) |
|
|---|---|---|---|---|---|---|---|---|---|
| 1 | 01/31 | 00:00 | 36 | 34 | 95 | 29.56 | N | 2 | 0.00 |
| 2 | 01/30 | 23:00 | 37 | 34 | 92 | 29.56 | N | 0 | 0.00 |
| 3 | 01/30 | 22:00 | 39 | 36 | 90 | 29.56 | NNW | 0 | 0.00 |
| 4 | 01/30 | 21:00 | 41 | 37 | 88 | 29.56 | NNW | 0 | 0.00 |
| 5 | 01/30 | 20:00 | 43 | 38 | 84 | 29.56 | SSW | 1 | 0.00 |
| 6 | 01/30 | 19:00 | 45 | 39 | 82 | 29.56 | WSW | 2 | 0.00 |
| 7 | 01/30 | 18:00 | 47 | 39 | 76 | 29.55 | SSW | 2 | 0.00 |
| 8 | 01/30 | 17:00 | 49 | 39 | 71 | 29.53 | SW | 3 | 0.00 |
| 9 | 01/30 | 16:00 | 49 | 40 | 72 | 29.53 | SSW | 8 | 0.00 |
| 10 | 01/30 | 15:00 | 48 | 41 | 79 | 29.51 | SW | 7 | 0.00 |
| 11 | 01/30 | 14:00 | 45 | 42 | 90 | 29.51 | WNW | 5 | 0.00 |
| 12 | 01/30 | 13:00 | 40 | 39 | 99 | 29.56 | WNW | 5 | 0.00 |
| 13 | 01/30 | 12:00 | 38 | 37 | 98 | 29.55 | SE | 1 | 0.03 |
| 14 | 01/30 | 11:00 | 37 | 36 | 100 | 29.60 | W | 5 | 0.01 |
| 15 | 01/30 | 10:00 | 36 | 36 | 100 | 29.62 | NE | 6 | 0.04 |
| 16 | 01/30 | 09:00 | 35 | 34 | 98 | 29.70 | NE | 6 | 0.07 |
| 17 | 01/30 | 08:00 | 35 | 33 | 96 | 29.77 | ENE | 3 | 0.11 |
| 18 | 01/30 | 07:00 | 34 | 32 | 96 | 29.84 | NE | 1 | 0.05 |
| 19 | 01/30 | 06:00 | 34 | 32 | 93 | 29.88 | NE | 4 | 0.04 |
| 20 | 01/30 | 05:00 | 34 | 29 | 84 | 29.94 | NNE | 2 | 0.00 |
| 21 | 01/30 | 04:00 | 33 | 27 | 81 | 29.97 | ENE | 4 | 0.00 |
| 22 | 01/30 | 03:00 | 33 | 27 | 79 | 30.01 | ESE | 1 | 0.00 |
| 23 | 01/30 | 02:00 | 34 | 27 | 77 | 30.04 | ESE | 1 | 0.00 |
| 24 | 01/30 | 01:00 | 34 | 26 | 74 | 30.08 | S | 4 | 0.00 |